sensor_id;sensor_type;location;lat;lon;timestamp;P1;durP1;ratioP1;P2;durP2;ratioP2
355;SDS011;62514;48.112;11.566;2024-02-21T00:02:19;244.97;;;56.40;;
355;SDS011;62514;48.112;11.566;2024-02-21T00:04:45;246.70;;;58.37;;
355;SDS011;62514;48.112;11.566;2024-02-21T00:07:12;243.97;;;56.37;;
355;SDS011;62514;48.112;11.566;2024-02-21T00:09:38;245.13;;;57.67;;
355;SDS011;62514;48.112;11.566;2024-02-21T00:12:04;242.60;;;56.13;;
355;SDS011;62514;48.112;11.566;2024-02-21T00:14:30;251.27;;;58.90;;
355;SDS011;62514;48.112;11.566;2024-02-21T00:16:56;254.47;;;58.57;;
355;SDS011;62514;48.112;11.566;2024-02-21T00:19:22;253.97;;;58.20;;
355;SDS011;62514;48.112;11.566;2024-02-21T00:21:48;257.70;;;58.80;;
355;SDS011;62514;48.112;11.566;2024-02-21T00:24:14;253.93;;;58.80;;
355;SDS011;62514;48.112;11.566;2024-02-21T00:26:40;249.27;;;56.80;;
355;SDS011;62514;48.112;11.566;2024-02-21T00:29:06;252.63;;;58.00;;
355;SDS011;62514;48.112;11.566;2024-02-21T00:31:32;256.30;;;59.10;;
355;SDS011;62514;48.112;11.566;2024-02-21T00:33:58;251.93;;;58.27;;
355;SDS011;62514;48.112;11.566;2024-02-21T00:36:23;249.10;;;58.40;;
355;SDS011;62514;48.112;11.566;2024-02-21T00:38:49;247.67;;;55.67;;
355;SDS011;62514;48.112;11.566;2024-02-21T00:41:15;253.97;;;59.30;;
355;SDS011;62514;48.112;11.566;2024-02-21T00:43:41;251.87;;;57.70;;
355;SDS011;62514;48.112;11.566;2024-02-21T00:46:07;249.90;;;57.23;;
355;SDS011;62514;48.112;11.566;2024-02-21T00:48:33;255.97;;;59.70;;
355;SDS011;62514;48.112;11.566;2024-02-21T00:50:59;250.97;;;58.00;;
355;SDS011;62514;48.112;11.566;2024-02-21T00:53:25;258.30;;;61.27;;
355;SDS011;62514;48.112;11.566;2024-02-21T00:55:51;254.03;;;57.50;;
355;SDS011;62514;48.112;11.566;2024-02-21T00:58:17;245.37;;;57.23;;
355;SDS011;62514;48.112;11.566;2024-02-21T01:00:43;248.37;;;59.57;;
355;SDS011;62514;48.112;11.566;2024-02-21T01:03:09;249.83;;;58.07;;
355;SDS011;62514;48.112;11.566;2024-02-21T01:05:35;243.77;;;56.00;;
355;SDS011;62514;48.112;11.566;2024-02-21T01:08:01;247.43;;;57.40;;
355;SDS011;62514;48.112;11.566;2024-02-21T01:10:27;253.07;;;57.17;;
355;SDS011;62514;48.112;11.566;2024-02-21T01:12:52;256.90;;;59.30;;
355;SDS011;62514;48.112;11.566;2024-02-21T01:15:18;251.97;;;58.03;;
355;SDS011;62514;48.112;11.566;2024-02-21T01:17:44;258.93;;;61.13;;
355;SDS011;62514;48.112;11.566;2024-02-21T01:20:10;241.03;;;55.20;;
355;SDS011;62514;48.112;11.566;2024-02-21T01:22:36;271.50;;;70.63;;
355;SDS011;62514;48.112;11.566;2024-02-21T01:25:02;256.73;;;59.50;;
355;SDS011;62514;48.112;11.566;2024-02-21T01:27:28;259.73;;;61.37;;
355;SDS011;62514;48.112;11.566;2024-02-21T01:29:55;256.03;;;59.70;;
355;SDS011;62514;48.112;11.566;2024-02-21T01:32:21;247.53;;;57.07;;
355;SDS011;62514;48.112;11.566;2024-02-21T01:34:49;253.17;;;59.30;;
355;SDS011;62514;48.112;11.566;2024-02-21T01:37:16;252.23;;;57.90;;
355;SDS011;62514;48.112;11.566;2024-02-21T01:39:42;250.53;;;57.80;;
355;SDS011;62514;48.112;11.566;2024-02-21T01:42:07;258.17;;;58.77;;
355;SDS011;62514;48.112;11.566;2024-02-21T01:44:34;246.93;;;56.87;;
355;SDS011;62514;48.112;11.566;2024-02-21T01:47:00;251.80;;;56.77;;
355;SDS011;62514;48.112;11.566;2024-02-21T01:49:27;253.90;;;59.90;;
355;SDS011;62514;48.112;11.566;2024-02-21T01:51:53;250.83;;;57.87;;
355;SDS011;62514;48.112;11.566;2024-02-21T01:54:19;261.60;;;60.50;;
355;SDS011;62514;48.112;11.566;2024-02-21T01:56:46;255.53;;;58.43;;
355;SDS011;62514;48.112;11.566;2024-02-21T01:59:14;261.00;;;60.07;;
355;SDS011;62514;48.112;11.566;2024-02-21T02:01:41;258.80;;;59.13;;
355;SDS011;62514;48.112;11.566;2024-02-21T02:04:08;256.60;;;59.10;;
355;SDS011;62514;48.112;11.566;2024-02-21T02:06:34;250.60;;;57.10;;
355;SDS011;62514;48.112;11.566;2024-02-21T02:09:01;254.37;;;59.10;;
355;SDS011;62514;48.112;11.566;2024-02-21T02:11:27;260.13;;;59.40;;
355;SDS011;62514;48.112;11.566;2024-02-21T02:13:53;263.57;;;60.40;;
355;SDS011;62514;48.112;11.566;2024-02-21T02:16:19;255.63;;;57.40;;
355;SDS011;62514;48.112;11.566;2024-02-21T02:18:46;258.63;;;58.40;;
355;SDS011;62514;48.112;11.566;2024-02-21T02:21:13;257.67;;;58.90;;
355;SDS011;62514;48.112;11.566;2024-02-21T02:23:49;254.57;;;57.90;;
355;SDS011;62514;48.112;11.566;2024-02-21T02:26:15;272.97;;;62.13;;
355;SDS011;62514;48.112;11.566;2024-02-21T02:28:41;260.80;;;60.33;;
355;SDS011;62514;48.112;11.566;2024-02-21T02:31:07;261.13;;;60.60;;
355;SDS011;62514;48.112;11.566;2024-02-21T02:33:32;258.40;;;57.70;;
355;SDS011;62514;48.112;11.566;2024-02-21T02:35:58;258.37;;;58.23;;
355;SDS011;62514;48.112;11.566;2024-02-21T02:38:24;260.07;;;59.67;;
355;SDS011;62514;48.112;11.566;2024-02-21T02:40:50;263.30;;;60.30;;
355;SDS011;62514;48.112;11.566;2024-02-21T02:43:16;262.60;;;59.30;;
355;SDS011;62514;48.112;11.566;2024-02-21T02:45:42;258.00;;;57.13;;
355;SDS011;62514;48.112;11.566;2024-02-21T02:48:08;259.17;;;57.83;;
355;SDS011;62514;48.112;11.566;2024-02-21T02:50:34;259.53;;;58.07;;
355;SDS011;62514;48.112;11.566;2024-02-21T02:53:00;258.07;;;58.20;;
355;SDS011;62514;48.112;11.566;2024-02-21T02:55:26;262.07;;;60.33;;
355;SDS011;62514;48.112;11.566;2024-02-21T02:57:52;261.27;;;58.63;;
355;SDS011;62514;48.112;11.566;2024-02-21T03:00:18;259.73;;;58.03;;
355;SDS011;62514;48.112;11.566;2024-02-21T03:02:45;253.70;;;56.90;;
355;SDS011;62514;48.112;11.566;2024-02-21T03:05:15;264.60;;;60.00;;
355;SDS011;62514;48.112;11.566;2024-02-21T03:07:42;268.03;;;61.33;;
355;SDS011;62514;48.112;11.566;2024-02-21T03:10:09;267.70;;;60.23;;
355;SDS011;62514;48.112;11.566;2024-02-21T03:12:35;302.40;;;78.37;;
355;SDS011;62514;48.112;11.566;2024-02-21T03:15:01;269.47;;;61.73;;
355;SDS011;62514;48.112;11.566;2024-02-21T03:17:28;266.17;;;59.37;;
355;SDS011;62514;48.112;11.566;2024-02-21T03:19:54;259.47;;;58.53;;
355;SDS011;62514;48.112;11.566;2024-02-21T03:22:24;265.73;;;64.00;;
355;SDS011;62514;48.112;11.566;2024-02-21T03:24:50;258.53;;;59.53;;
355;SDS011;62514;48.112;11.566;2024-02-21T03:27:16;258.17;;;58.80;;
355;SDS011;62514;48.112;11.566;2024-02-21T03:29:42;264.43;;;61.30;;
355;SDS011;62514;48.112;11.566;2024-02-21T03:32:08;253.27;;;58.47;;
355;SDS011;62514;48.112;11.566;2024-02-21T03:34:35;256.07;;;60.90;;
355;SDS011;62514;48.112;11.566;2024-02-21T03:37:01;249.97;;;57.70;;
355;SDS011;62514;48.112;11.566;2024-02-21T03:39:27;257.50;;;60.13;;
355;SDS011;62514;48.112;11.566;2024-02-21T03:41:53;244.43;;;57.13;;
355;SDS011;62514;48.112;11.566;2024-02-21T03:44:19;247.37;;;56.90;;
355;SDS011;62514;48.112;11.566;2024-02-21T03:46:44;239.03;;;56.07;;
355;SDS011;62514;48.112;11.566;2024-02-21T03:49:10;245.73;;;58.33;;
355;SDS011;62514;48.112;11.566;2024-02-21T03:51:37;247.37;;;58.03;;
355;SDS011;62514;48.112;11.566;2024-02-21T03:54:02;237.53;;;54.77;;
355;SDS011;62514;48.112;11.566;2024-02-21T03:56:28;250.10;;;58.30;;
355;SDS011;62514;48.112;11.566;2024-02-21T03:58:54;245.83;;;57.00;;
355;SDS011;62514;48.112;11.566;2024-02-21T04:01:20;248.50;;;58.10;;
355;SDS011;62514;48.112;11.566;2024-02-21T04:03:46;243.83;;;56.03;;
355;SDS011;62514;48.112;11.566;2024-02-21T04:06:12;250.07;;;58.30;;
355;SDS011;62514;48.112;11.566;2024-02-21T04:08:38;252.10;;;60.30;;
355;SDS011;62514;48.112;11.566;2024-02-21T04:11:04;261.17;;;64.13;;
355;SDS011;62514;48.112;11.566;2024-02-21T04:13:30;246.70;;;58.10;;
355;SDS011;62514;48.112;11.566;2024-02-21T04:15:56;245.30;;;57.37;;
355;SDS011;62514;48.112;11.566;2024-02-21T04:18:22;241.30;;;56.00;;
355;SDS011;62514;48.112;11.566;2024-02-21T04:20:48;247.13;;;57.47;;
355;SDS011;62514;48.112;11.566;2024-02-21T04:23:17;247.57;;;58.17;;
355;SDS011;62514;48.112;11.566;2024-02-21T04:25:43;237.57;;;55.47;;
355;SDS011;62514;48.112;11.566;2024-02-21T04:28:09;243.33;;;56.27;;
355;SDS011;62514;48.112;11.566;2024-02-21T04:30:35;248.23;;;57.90;;
355;SDS011;62514;48.112;11.566;2024-02-21T04:33:01;247.47;;;58.03;;
355;SDS011;62514;48.112;11.566;2024-02-21T04:35:27;233.37;;;55.17;;
355;SDS011;62514;48.112;11.566;2024-02-21T04:37:53;251.37;;;59.43;;
355;SDS011;62514;48.112;11.566;2024-02-21T04:40:18;245.00;;;56.73;;
355;SDS011;62514;48.112;11.566;2024-02-21T04:42:44;239.87;;;55.70;;
355;SDS011;62514;48.112;11.566;2024-02-21T04:45:10;241.60;;;55.80;;
355;SDS011;62514;48.112;11.566;2024-02-21T04:47:36;241.50;;;56.63;;
355;SDS011;62514;48.112;11.566;2024-02-21T04:50:02;244.67;;;58.40;;
355;SDS011;62514;48.112;11.566;2024-02-21T04:52:28;245.00;;;58.17;;
355;SDS011;62514;48.112;11.566;2024-02-21T04:54:55;242.43;;;56.37;;
355;SDS011;62514;48.112;11.566;2024-02-21T04:57:21;241.97;;;56.87;;
355;SDS011;62514;48.112;11.566;2024-02-21T04:59:47;246.57;;;59.10;;
355;SDS011;62514;48.112;11.566;2024-02-21T05:02:13;237.67;;;55.00;;
355;SDS011;62514;48.112;11.566;2024-02-21T05:04:39;251.57;;;61.27;;
355;SDS011;62514;48.112;11.566;2024-02-21T05:07:07;235.47;;;55.03;;
355;SDS011;62514;48.112;11.566;2024-02-21T05:09:33;242.03;;;57.53;;
355;SDS011;62514;48.112;11.566;2024-02-21T05:11:59;245.30;;;59.00;;
355;SDS011;62514;48.112;11.566;2024-02-21T05:14:25;240.77;;;56.93;;
355;SDS011;62514;48.112;11.566;2024-02-21T05:16:52;241.57;;;58.37;;
355;SDS011;62514;48.112;11.566;2024-02-21T05:19:18;244.80;;;59.10;;
355;SDS011;62514;48.112;11.566;2024-02-21T05:21:44;239.13;;;56.60;;
355;SDS011;62514;48.112;11.566;2024-02-21T05:24:11;234.87;;;53.93;;
355;SDS011;62514;48.112;11.566;2024-02-21T05:26:37;235.43;;;54.90;;
355;SDS011;62514;48.112;11.566;2024-02-21T05:29:03;231.00;;;54.40;;
355;SDS011;62514;48.112;11.566;2024-02-21T05:34:17;230.60;;;54.07;;
355;SDS011;62514;48.112;11.566;2024-02-21T05:36:43;237.30;;;56.20;;
355;SDS011;62514;48.112;11.566;2024-02-21T05:39:10;236.03;;;56.50;;
355;SDS011;62514;48.112;11.566;2024-02-21T05:41:36;231.03;;;53.57;;
355;SDS011;62514;48.112;11.566;2024-02-21T05:44:01;233.10;;;54.83;;
355;SDS011;62514;48.112;11.566;2024-02-21T05:46:28;237.73;;;56.40;;
355;SDS011;62514;48.112;11.566;2024-02-21T05:48:54;236.93;;;56.10;;
355;SDS011;62514;48.112;11.566;2024-02-21T05:51:20;229.30;;;53.40;;
355;SDS011;62514;48.112;11.566;2024-02-21T05:53:46;235.00;;;56.60;;
355;SDS011;62514;48.112;11.566;2024-02-21T05:56:12;228.63;;;54.13;;
355;SDS011;62514;48.112;11.566;2024-02-21T05:58:39;234.47;;;55.63;;
355;SDS011;62514;48.112;11.566;2024-02-21T06:01:05;225.77;;;53.50;;
355;SDS011;62514;48.112;11.566;2024-02-21T06:03:32;233.40;;;54.90;;
355;SDS011;62514;48.112;11.566;2024-02-21T06:05:59;234.37;;;56.10;;
355;SDS011;62514;48.112;11.566;2024-02-21T06:08:25;235.90;;;56.73;;
355;SDS011;62514;48.112;11.566;2024-02-21T06:10:52;229.60;;;53.93;;
355;SDS011;62514;48.112;11.566;2024-02-21T06:13:26;231.70;;;54.40;;
355;SDS011;62514;48.112;11.566;2024-02-21T06:15:52;225.80;;;54.07;;
355;SDS011;62514;48.112;11.566;2024-02-21T06:18:19;232.03;;;54.87;;
355;SDS011;62514;48.112;11.566;2024-02-21T06:20:45;222.73;;;54.23;;
355;SDS011;62514;48.112;11.566;2024-02-21T06:23:15;228.33;;;55.23;;
355;SDS011;62514;48.112;11.566;2024-02-21T06:25:42;232.37;;;56.70;;
355;SDS011;62514;48.112;11.566;2024-02-21T06:28:08;234.90;;;55.93;;
355;SDS011;62514;48.112;11.566;2024-02-21T06:30:35;224.20;;;53.90;;
355;SDS011;62514;48.112;11.566;2024-02-21T06:33:01;222.17;;;52.17;;
355;SDS011;62514;48.112;11.566;2024-02-21T06:35:28;237.30;;;57.33;;
355;SDS011;62514;48.112;11.566;2024-02-21T06:37:54;179.07;;;43.60;;
355;SDS011;62514;48.112;11.566;2024-02-21T06:40:21;237.13;;;56.90;;
355;SDS011;62514;48.112;11.566;2024-02-21T06:42:48;233.50;;;55.40;;
355;SDS011;62514;48.112;11.566;2024-02-21T06:45:14;232.80;;;56.10;;
355;SDS011;62514;48.112;11.566;2024-02-21T06:47:40;245.37;;;60.30;;
355;SDS011;62514;48.112;11.566;2024-02-21T06:50:06;237.13;;;57.30;;
355;SDS011;62514;48.112;11.566;2024-02-21T06:52:34;239.23;;;57.07;;
355;SDS011;62514;48.112;11.566;2024-02-21T06:55:00;235.77;;;56.17;;
355;SDS011;62514;48.112;11.566;2024-02-21T06:57:26;238.47;;;56.00;;
355;SDS011;62514;48.112;11.566;2024-02-21T06:59:53;229.30;;;53.50;;
355;SDS011;62514;48.112;11.566;2024-02-21T07:02:19;238.30;;;56.43;;
355;SDS011;62514;48.112;11.566;2024-02-21T07:04:45;238.67;;;56.20;;
355;SDS011;62514;48.112;11.566;2024-02-21T07:07:11;237.70;;;56.07;;
355;SDS011;62514;48.112;11.566;2024-02-21T07:09:38;242.20;;;58.47;;
355;SDS011;62514;48.112;11.566;2024-02-21T07:12:04;250.60;;;60.53;;
355;SDS011;62514;48.112;11.566;2024-02-21T07:14:32;241.70;;;57.30;;
355;SDS011;62514;48.112;11.566;2024-02-21T07:16:58;248.17;;;58.47;;
355;SDS011;62514;48.112;11.566;2024-02-21T07:19:24;249.97;;;59.60;;
355;SDS011;62514;48.112;11.566;2024-02-21T07:21:50;246.00;;;57.50;;
355;SDS011;62514;48.112;11.566;2024-02-21T07:24:16;243.23;;;57.27;;
355;SDS011;62514;48.112;11.566;2024-02-21T07:26:43;252.53;;;61.07;;
355;SDS011;62514;48.112;11.566;2024-02-21T07:29:09;251.10;;;59.03;;
355;SDS011;62514;48.112;11.566;2024-02-21T07:31:42;252.23;;;59.47;;
355;SDS011;62514;48.112;11.566;2024-02-21T07:34:09;253.47;;;59.47;;
355;SDS011;62514;48.112;11.566;2024-02-21T07:36:35;255.77;;;60.80;;
355;SDS011;62514;48.112;11.566;2024-02-21T07:39:03;270.67;;;70.13;;
355;SDS011;62514;48.112;11.566;2024-02-21T07:41:32;248.47;;;57.57;;
355;SDS011;62514;48.112;11.566;2024-02-21T07:43:59;247.47;;;56.87;;
355;SDS011;62514;48.112;11.566;2024-02-21T07:46:25;260.00;;;60.90;;
355;SDS011;62514;48.112;11.566;2024-02-21T07:48:51;260.73;;;60.67;;
355;SDS011;62514;48.112;11.566;2024-02-21T07:51:17;259.37;;;59.37;;
355;SDS011;62514;48.112;11.566;2024-02-21T07:53:43;258.70;;;59.03;;
355;SDS011;62514;48.112;11.566;2024-02-21T07:56:11;267.40;;;62.43;;
355;SDS011;62514;48.112;11.566;2024-02-21T07:58:37;269.93;;;62.97;;
355;SDS011;62514;48.112;11.566;2024-02-21T08:01:03;271.50;;;62.03;;
355;SDS011;62514;48.112;11.566;2024-02-21T08:03:29;283.83;;;65.77;;
355;SDS011;62514;48.112;11.566;2024-02-21T08:05:55;284.07;;;66.57;;
355;SDS011;62514;48.112;11.566;2024-02-21T08:08:21;280.83;;;64.70;;
355;SDS011;62514;48.112;11.566;2024-02-21T08:10:48;283.77;;;64.87;;
355;SDS011;62514;48.112;11.566;2024-02-21T08:13:14;286.40;;;66.60;;
355;SDS011;62514;48.112;11.566;2024-02-21T08:15:40;286.30;;;68.03;;
355;SDS011;62514;48.112;11.566;2024-02-21T08:18:07;285.13;;;64.57;;
355;SDS011;62514;48.112;11.566;2024-02-21T08:20:33;285.27;;;64.70;;
355;SDS011;62514;48.112;11.566;2024-02-21T08:22:59;293.77;;;67.03;;
355;SDS011;62514;48.112;11.566;2024-02-21T08:25:26;293.73;;;64.70;;
355;SDS011;62514;48.112;11.566;2024-02-21T08:27:53;295.23;;;67.53;;
355;SDS011;62514;48.112;11.566;2024-02-21T08:30:22;298.67;;;67.57;;
355;SDS011;62514;48.112;11.566;2024-02-21T08:32:48;308.30;;;71.17;;
355;SDS011;62514;48.112;11.566;2024-02-21T08:35:15;312.10;;;72.90;;
355;SDS011;62514;48.112;11.566;2024-02-21T08:37:43;316.47;;;73.43;;
355;SDS011;62514;48.112;11.566;2024-02-21T08:40:12;319.67;;;73.37;;
355;SDS011;62514;48.112;11.566;2024-02-21T08:42:41;339.07;;;83.70;;
355;SDS011;62514;48.112;11.566;2024-02-21T08:45:07;316.53;;;71.70;;
355;SDS011;62514;48.112;11.566;2024-02-21T08:47:33;327.80;;;78.27;;
355;SDS011;62514;48.112;11.566;2024-02-21T08:50:01;331.50;;;77.63;;
355;SDS011;62514;48.112;11.566;2024-02-21T08:52:27;323.37;;;75.27;;
355;SDS011;62514;48.112;11.566;2024-02-21T08:54:53;332.37;;;77.73;;
355;SDS011;62514;48.112;11.566;2024-02-21T08:57:22;333.00;;;79.80;;
355;SDS011;62514;48.112;11.566;2024-02-21T08:59:48;336.47;;;81.17;;
355;SDS011;62514;48.112;11.566;2024-02-21T09:02:14;341.60;;;82.87;;
355;SDS011;62514;48.112;11.566;2024-02-21T09:04:43;339.60;;;79.27;;
355;SDS011;62514;48.112;11.566;2024-02-21T09:07:09;345.00;;;80.90;;
355;SDS011;62514;48.112;11.566;2024-02-21T09:09:37;356.73;;;82.37;;
355;SDS011;62514;48.112;11.566;2024-02-21T09:12:08;357.93;;;89.10;;
355;SDS011;62514;48.112;11.566;2024-02-21T09:14:35;356.00;;;86.47;;
355;SDS011;62514;48.112;11.566;2024-02-21T09:17:03;340.87;;;82.23;;
355;SDS011;62514;48.112;11.566;2024-02-21T09:19:29;345.50;;;81.80;;
355;SDS011;62514;48.112;11.566;2024-02-21T09:21:55;339.97;;;84.33;;
355;SDS011;62514;48.112;11.566;2024-02-21T09:24:21;349.43;;;86.73;;
355;SDS011;62514;48.112;11.566;2024-02-21T09:26:47;368.23;;;94.17;;
355;SDS011;62514;48.112;11.566;2024-02-21T09:29:14;373.60;;;96.63;;
355;SDS011;62514;48.112;11.566;2024-02-21T09:31:41;369.60;;;93.70;;
355;SDS011;62514;48.112;11.566;2024-02-21T09:34:07;362.23;;;91.00;;
355;SDS011;62514;48.112;11.566;2024-02-21T09:36:33;371.07;;;91.43;;
355;SDS011;62514;48.112;11.566;2024-02-21T09:38:59;376.60;;;94.20;;
355;SDS011;62514;48.112;11.566;2024-02-21T09:41:25;380.30;;;98.50;;
355;SDS011;62514;48.112;11.566;2024-02-21T09:43:55;382.63;;;97.30;;
355;SDS011;62514;48.112;11.566;2024-02-21T09:47:06;386.53;;;97.13;;
355;SDS011;62514;48.112;11.566;2024-02-21T09:51:54;406.27;;;110.60;;
355;SDS011;62514;48.112;11.566;2024-02-21T09:54:22;401.37;;;105.00;;
355;SDS011;62514;48.112;11.566;2024-02-21T09:56:48;416.13;;;116.27;;
355;SDS011;62514;48.112;11.566;2024-02-21T09:59:15;406.10;;;114.80;;
355;SDS011;62514;48.112;11.566;2024-02-21T10:01:44;412.03;;;119.27;;
355;SDS011;62514;48.112;11.566;2024-02-21T10:04:12;407.40;;;113.80;;
355;SDS011;62514;48.112;11.566;2024-02-21T10:06:38;399.93;;;109.93;;
355;SDS011;62514;48.112;11.566;2024-02-21T10:09:07;401.57;;;117.93;;
355;SDS011;62514;48.112;11.566;2024-02-21T10:11:33;417.53;;;130.40;;
355;SDS011;62514;48.112;11.566;2024-02-21T10:14:05;417.47;;;126.50;;
355;SDS011;62514;48.112;11.566;2024-02-21T10:16:34;424.00;;;132.33;;
355;SDS011;62514;48.112;11.566;2024-02-21T10:19:00;440.07;;;141.53;;
355;SDS011;62514;48.112;11.566;2024-02-21T10:21:26;450.00;;;147.27;;
355;SDS011;62514;48.112;11.566;2024-02-21T10:23:52;431.17;;;137.43;;
355;SDS011;62514;48.112;11.566;2024-02-21T10:26:19;442.60;;;139.13;;
355;SDS011;62514;48.112;11.566;2024-02-21T10:28:45;441.47;;;138.57;;
355;SDS011;62514;48.112;11.566;2024-02-21T10:31:22;440.03;;;140.80;;
355;SDS011;62514;48.112;11.566;2024-02-21T10:33:59;436.87;;;139.20;;
355;SDS011;62514;48.112;11.566;2024-02-21T10:36:29;451.27;;;151.10;;
355;SDS011;62514;48.112;11.566;2024-02-21T10:38:55;452.50;;;154.17;;
355;SDS011;62514;48.112;11.566;2024-02-21T10:41:21;466.83;;;161.43;;
355;SDS011;62514;48.112;11.566;2024-02-21T10:43:52;475.77;;;167.37;;
355;SDS011;62514;48.112;11.566;2024-02-21T10:46:20;483.47;;;176.83;;
355;SDS011;62514;48.112;11.566;2024-02-21T10:48:47;482.33;;;171.77;;
355;SDS011;62514;48.112;11.566;2024-02-21T10:51:20;490.23;;;180.57;;
355;SDS011;62514;48.112;11.566;2024-02-21T10:54:02;496.10;;;196.40;;
355;SDS011;62514;48.112;11.566;2024-02-21T10:56:32;505.00;;;200.67;;
355;SDS011;62514;48.112;11.566;2024-02-21T10:59:03;518.40;;;215.40;;
355;SDS011;62514;48.112;11.566;2024-02-21T11:01:30;521.47;;;230.40;;
355;SDS011;62514;48.112;11.566;2024-02-21T11:04:19;516.93;;;227.57;;
355;SDS011;62514;48.112;11.566;2024-02-21T11:06:45;518.90;;;229.97;;
355;SDS011;62514;48.112;11.566;2024-02-21T11:09:12;522.13;;;237.03;;
355;SDS011;62514;48.112;11.566;2024-02-21T11:11:39;515.10;;;225.73;;
355;SDS011;62514;48.112;11.566;2024-02-21T11:14:09;507.80;;;223.03;;
355;SDS011;62514;48.112;11.566;2024-02-21T11:16:46;502.70;;;214.97;;
355;SDS011;62514;48.112;11.566;2024-02-21T11:21:44;511.87;;;225.03;;
355;SDS011;62514;48.112;11.566;2024-02-21T11:24:10;512.83;;;229.73;;
355;SDS011;62514;48.112;11.566;2024-02-21T11:26:37;511.67;;;228.13;;
355;SDS011;62514;48.112;11.566;2024-02-21T11:29:03;516.03;;;234.17;;
355;SDS011;62514;48.112;11.566;2024-02-21T11:31:42;512.40;;;229.00;;
355;SDS011;62514;48.112;11.566;2024-02-21T11:34:11;523.63;;;242.77;;
355;SDS011;62514;48.112;11.566;2024-02-21T11:36:47;516.37;;;237.43;;
355;SDS011;62514;48.112;11.566;2024-02-21T11:39:32;513.77;;;235.00;;
355;SDS011;62514;48.112;11.566;2024-02-21T11:42:05;515.47;;;240.47;;
355;SDS011;62514;48.112;11.566;2024-02-21T11:44:38;520.97;;;235.17;;
355;SDS011;62514;48.112;11.566;2024-02-21T11:47:05;508.17;;;220.20;;
355;SDS011;62514;48.112;11.566;2024-02-21T11:49:35;509.63;;;215.50;;
355;SDS011;62514;48.112;11.566;2024-02-21T11:52:03;491.07;;;199.33;;
355;SDS011;62514;48.112;11.566;2024-02-21T11:54:30;500.17;;;199.63;;
355;SDS011;62514;48.112;11.566;2024-02-21T11:56:56;496.53;;;210.47;;
355;SDS011;62514;48.112;11.566;2024-02-21T11:59:22;486.33;;;188.77;;
355;SDS011;62514;48.112;11.566;2024-02-21T12:01:48;484.87;;;190.23;;
355;SDS011;62514;48.112;11.566;2024-02-21T12:04:17;479.37;;;187.57;;
355;SDS011;62514;48.112;11.566;2024-02-21T12:06:44;491.00;;;202.03;;
355;SDS011;62514;48.112;11.566;2024-02-21T12:09:17;516.13;;;229.83;;
355;SDS011;62514;48.112;11.566;2024-02-21T12:11:43;519.43;;;230.83;;
355;SDS011;62514;48.112;11.566;2024-02-21T12:14:09;516.63;;;242.13;;
355;SDS011;62514;48.112;11.566;2024-02-21T12:16:36;531.60;;;270.87;;
355;SDS011;62514;48.112;11.566;2024-02-21T12:19:04;529.20;;;267.87;;
355;SDS011;62514;48.112;11.566;2024-02-21T12:21:31;538.27;;;286.30;;
355;SDS011;62514;48.112;11.566;2024-02-21T12:23:58;555.30;;;309.97;;
355;SDS011;62514;48.112;11.566;2024-02-21T12:26:25;545.63;;;308.87;;
355;SDS011;62514;48.112;11.566;2024-02-21T12:28:53;558.77;;;332.93;;
355;SDS011;62514;48.112;11.566;2024-02-21T12:31:19;554.37;;;329.47;;
355;SDS011;62514;48.112;11.566;2024-02-21T12:33:46;561.77;;;342.13;;
355;SDS011;62514;48.112;11.566;2024-02-21T12:36:13;567.57;;;339.27;;
355;SDS011;62514;48.112;11.566;2024-02-21T12:38:40;563.20;;;349.60;;
355;SDS011;62514;48.112;11.566;2024-02-21T12:41:06;555.87;;;332.27;;
355;SDS011;62514;48.112;11.566;2024-02-21T12:43:33;564.40;;;344.33;;
355;SDS011;62514;48.112;11.566;2024-02-21T12:45:59;560.93;;;336.00;;
355;SDS011;62514;48.112;11.566;2024-02-21T12:48:25;548.87;;;322.10;;
355;SDS011;62514;48.112;11.566;2024-02-21T12:50:51;560.13;;;349.70;;
355;SDS011;62514;48.112;11.566;2024-02-21T12:53:17;563.80;;;362.43;;
355;SDS011;62514;48.112;11.566;2024-02-21T12:55:47;564.27;;;339.13;;
355;SDS011;62514;48.112;11.566;2024-02-21T12:58:13;559.70;;;336.70;;
355;SDS011;62514;48.112;11.566;2024-02-21T13:00:40;556.73;;;322.50;;
355;SDS011;62514;48.112;11.566;2024-02-21T13:03:06;558.07;;;330.10;;
355;SDS011;62514;48.112;11.566;2024-02-21T13:05:32;556.83;;;332.03;;
355;SDS011;62514;48.112;11.566;2024-02-21T13:07:59;554.53;;;330.90;;
355;SDS011;62514;48.112;11.566;2024-02-21T13:10:25;555.80;;;340.47;;
355;SDS011;62514;48.112;11.566;2024-02-21T13:12:50;554.70;;;336.97;;
355;SDS011;62514;48.112;11.566;2024-02-21T13:15:17;560.93;;;333.87;;
355;SDS011;62514;48.112;11.566;2024-02-21T13:17:44;549.53;;;316.50;;
355;SDS011;62514;48.112;11.566;2024-02-21T13:20:10;547.77;;;312.93;;
355;SDS011;62514;48.112;11.566;2024-02-21T13:22:37;559.90;;;317.20;;
355;SDS011;62514;48.112;11.566;2024-02-21T13:25:03;544.40;;;324.03;;
355;SDS011;62514;48.112;11.566;2024-02-21T13:27:30;549.33;;;337.97;;
355;SDS011;62514;48.112;11.566;2024-02-21T13:29:56;553.10;;;335.53;;
355;SDS011;62514;48.112;11.566;2024-02-21T13:32:22;546.33;;;313.50;;
355;SDS011;62514;48.112;11.566;2024-02-21T13:34:48;549.43;;;311.37;;
355;SDS011;62514;48.112;11.566;2024-02-21T13:37:14;538.03;;;289.20;;
355;SDS011;62514;48.112;11.566;2024-02-21T13:39:40;543.50;;;292.30;;
355;SDS011;62514;48.112;11.566;2024-02-21T13:42:06;532.13;;;287.53;;
355;SDS011;62514;48.112;11.566;2024-02-21T13:44:32;541.90;;;302.10;;
355;SDS011;62514;48.112;11.566;2024-02-21T13:46:59;544.23;;;309.43;;
355;SDS011;62514;48.112;11.566;2024-02-21T13:49:26;541.17;;;293.47;;
355;SDS011;62514;48.112;11.566;2024-02-21T13:51:51;536.30;;;288.10;;
355;SDS011;62514;48.112;11.566;2024-02-21T13:54:18;533.10;;;278.83;;
355;SDS011;62514;48.112;11.566;2024-02-21T13:56:45;537.17;;;288.57;;
355;SDS011;62514;48.112;11.566;2024-02-21T13:59:14;528.27;;;273.77;;
355;SDS011;62514;48.112;11.566;2024-02-21T14:01:41;524.27;;;269.17;;
355;SDS011;62514;48.112;11.566;2024-02-21T14:04:08;535.53;;;276.97;;
355;SDS011;62514;48.112;11.566;2024-02-21T14:06:34;537.33;;;281.40;;
355;SDS011;62514;48.112;11.566;2024-02-21T14:09:00;537.63;;;286.87;;
355;SDS011;62514;48.112;11.566;2024-02-21T14:11:26;532.93;;;289.20;;
355;SDS011;62514;48.112;11.566;2024-02-21T14:13:53;537.00;;;285.00;;
355;SDS011;62514;48.112;11.566;2024-02-21T14:16:22;533.40;;;284.03;;
355;SDS011;62514;48.112;11.566;2024-02-21T14:18:48;528.77;;;277.83;;
355;SDS011;62514;48.112;11.566;2024-02-21T14:21:14;521.67;;;262.50;;
355;SDS011;62514;48.112;11.566;2024-02-21T14:23:40;527.87;;;265.40;;
355;SDS011;62514;48.112;11.566;2024-02-21T14:26:06;517.70;;;259.43;;